createdAt,value
2019-02-21T00:00:08.121Z,102037.59
2019-02-21T00:01:19.417Z,102034.78
2019-02-21T00:02:25.734Z,102034.78
2019-02-21T00:03:30.123Z,102038.16
2019-02-21T00:04:34.471Z,102035.00
2019-02-21T00:05:38.809Z,102034.36
2019-02-21T00:06:43.178Z,102028.17
2019-02-21T00:07:47.583Z,102027.68
2019-02-21T00:08:51.760Z,102036.19
2019-02-21T00:09:56.119Z,102031.13
2019-02-21T00:11:00.425Z,102029.51
2019-02-21T00:12:04.730Z,102037.77
2019-02-21T00:13:09.105Z,102032.67
2019-02-21T00:14:13.453Z,102038.44
2019-02-21T00:15:17.750Z,102039.64
2019-02-21T00:16:22.098Z,102041.72
2019-02-21T00:17:26.475Z,102040.13
2019-02-21T00:18:30.751Z,102046.19
2019-02-21T00:19:35.098Z,102045.20
2019-02-21T00:20:39.526Z,102039.01
2019-02-21T00:21:43.829Z,102035.70
2019-02-21T00:22:48.198Z,102032.11
2019-02-21T00:23:52.426Z,102033.80
2019-02-21T00:24:56.877Z,102022.40
2019-02-21T00:26:01.114Z,102028.45
2019-02-21T00:27:05.503Z,102027.82
2019-02-21T00:28:16.323Z,102025.50
2019-02-21T00:29:20.609Z,102023.17
2019-02-21T00:30:34.552Z,102025.14
2019-02-21T00:31:29.340Z,102020.08
2019-02-21T00:32:33.636Z,102031.76
2019-02-21T00:33:37.828Z,102020.11
2019-02-21T00:34:42.127Z,102034.92
2019-02-21T00:35:46.472Z,102036.83
2019-02-21T00:36:50.673Z,102037.17
2019-02-21T00:37:55.033Z,102037.53
2019-02-21T00:38:59.417Z,102037.31
2019-02-21T00:40:03.670Z,102028.31
2019-02-21T00:41:08.009Z,102037.81
2019-02-21T00:42:12.463Z,102029.16
2019-02-21T00:43:16.742Z,102030.21
2019-02-21T00:44:21.146Z,102035.56
2019-02-21T00:45:25.349Z,102038.97
2019-02-21T00:46:35.929Z,102035.94
2019-02-21T00:47:40.298Z,102042.34
2019-02-21T00:48:44.516Z,102039.57
2019-02-21T00:49:48.822Z,102040.84
2019-02-21T00:50:53.113Z,102041.68
2019-02-21T00:51:57.347Z,102044.92
2019-02-21T00:53:01.634Z,102041.30
2019-02-21T00:54:05.855Z,102049.91
2019-02-21T00:55:10.230Z,102044.70
2019-02-21T00:56:14.551Z,102048.92
2019-02-21T00:57:18.863Z,102041.64
2019-02-21T00:58:23.169Z,102045.87
2019-02-21T00:59:27.430Z,102040.03
2019-02-21T01:00:31.764Z,102047.56
2019-02-21T01:01:36.089Z,102048.75
2019-02-21T01:02:40.337Z,102051.42
2019-02-21T01:03:44.584Z,102048.27
2019-02-21T01:04:48.982Z,102052.16
2019-02-21T01:05:53.227Z,102045.73
2019-02-21T01:06:57.433Z,102051.42
2019-02-21T01:08:01.718Z,102051.78
2019-02-21T01:09:06.682Z,102049.48
2019-02-21T01:10:11.188Z,102053.36
2019-02-21T01:11:15.430Z,102058.08
2019-02-21T01:12:19.774Z,102049.35
2019-02-21T01:13:24.105Z,102052.87
2019-02-21T01:14:28.338Z,102056.03
2019-02-21T01:15:32.780Z,102053.86
2019-02-21T01:16:37.156Z,102058.22
2019-02-21T01:17:41.413Z,102060.89
2019-02-21T01:18:45.688Z,102064.63
2019-02-21T01:19:50.099Z,102068.14
2019-02-21T01:20:57.281Z,102073.00
2019-02-21T01:22:01.535Z,102070.67
2019-02-21T01:23:05.862Z,102073.25
2019-02-21T01:24:10.176Z,102074.09
2019-02-21T01:25:14.547Z,102077.47
2019-02-21T01:26:18.893Z,102080.49
2019-02-21T01:27:23.188Z,102085.35
2019-02-21T01:28:27.509Z,102084.37
2019-02-21T01:29:31.778Z,102088.59
2019-02-21T01:30:36.258Z,102084.12
2019-02-21T01:31:40.647Z,102080.35
2019-02-21T01:32:44.994Z,102078.63
2019-02-21T01:33:49.238Z,102075.59
2019-02-21T01:34:53.426Z,102078.88
2019-02-21T01:35:57.733Z,102068.53
2019-02-21T01:37:02.129Z,102074.61
2019-02-21T01:38:06.478Z,102076.30
2019-02-21T01:39:10.805Z,102082.00
2019-02-21T01:40:15.185Z,102078.63
2019-02-21T01:41:19.388Z,102082.00
2019-02-21T01:42:23.893Z,102083.20
2019-02-21T01:43:28.259Z,102082.28
2019-02-21T01:44:32.537Z,102083.23
2019-02-21T01:45:36.806Z,102085.31
2019-02-21T01:46:41.151Z,102085.17
2019-02-21T01:47:45.433Z,102086.38
2019-02-21T01:48:49.768Z,102085.03
2019-02-21T01:49:54.030Z,102085.03
2019-02-21T01:50:58.364Z,102085.38
2019-02-21T01:52:02.725Z,102087.56
2019-02-21T01:53:07.094Z,102084.89
2019-02-21T01:54:11.405Z,102090.48
2019-02-21T01:55:15.694Z,102090.48
2019-02-21T01:56:20.022Z,102086.47
2019-02-21T01:57:24.275Z,102089.01
2019-02-21T01:58:28.500Z,102088.16
2019-02-21T01:59:32.842Z,102084.99
2019-02-21T02:00:37.197Z,102079.15
2019-02-21T02:01:41.471Z,102084.85
2019-02-21T02:02:45.813Z,102077.17
2019-02-21T02:03:50.192Z,102071.33
2019-02-21T02:04:54.605Z,102075.34
2019-02-21T02:05:58.977Z,102077.17
2019-02-21T02:07:03.312Z,102071.33
2019-02-21T02:08:07.714Z,102074.84
2019-02-21T02:09:13.349Z,102068.16
2019-02-21T02:10:17.558Z,102068.16
2019-02-21T02:11:21.915Z,102072.53
2019-02-21T02:12:26.209Z,102072.53
2019-02-21T02:13:30.516Z,102063.66
2019-02-21T02:14:34.789Z,102071.19
2019-02-21T02:15:39.179Z,102073.38
2019-02-21T02:16:43.405Z,102067.17
2019-02-21T02:17:47.741Z,102073.87
2019-02-21T02:18:52.174Z,102069.50
2019-02-21T02:19:56.570Z,102075.55
2019-02-21T02:21:00.951Z,102077.39
2019-02-21T02:22:05.230Z,102075.20
2019-02-21T02:23:09.568Z,102076.89
2019-02-21T02:24:14.815Z,102073.72
2019-02-21T02:25:18.407Z,102078.61
2019-02-21T02:26:22.682Z,102076.64
2019-02-21T02:27:27.008Z,102079.31
2019-02-21T02:28:31.203Z,102079.31
2019-02-21T02:29:35.564Z,102078.33
2019-02-21T02:30:39.816Z,102076.50
2019-02-21T02:31:44.221Z,102080.02
2019-02-21T02:32:48.623Z,102079.03
2019-02-21T02:33:52.972Z,102081.70
2019-02-21T02:34:59.782Z,102076.70
2019-02-21T02:36:01.661Z,102079.73
2019-02-21T02:37:05.937Z,102082.77
2019-02-21T02:38:10.276Z,102081.42
2019-02-21T02:39:14.653Z,102081.81
2019-02-21T02:40:19.016Z,102078.98
2019-02-21T02:41:23.313Z,102071.29
2019-02-21T02:42:27.535Z,102076.70
2019-02-21T02:43:31.811Z,102076.70
2019-02-21T02:44:36.147Z,102074.38
2019-02-21T02:45:40.545Z,102072.05
2019-02-21T02:46:44.873Z,102075.96
2019-02-21T02:47:49.198Z,102071.10
2019-02-21T02:48:53.444Z,102071.45
2019-02-21T02:49:57.785Z,102068.42
2019-02-21T02:51:02.126Z,102068.77
2019-02-21T02:52:06.506Z,102072.44
2019-02-21T02:53:10.798Z,102068.42
2019-02-21T02:54:15.093Z,102068.92
2019-02-21T02:55:19.428Z,102065.65
2019-02-21T02:56:23.786Z,102071.36
2019-02-21T02:57:28.157Z,102075.86
2019-02-21T02:58:32.343Z,102077.55
2019-02-21T02:59:40.941Z,102080.09
2019-02-21T03:00:41.112Z,102077.06
2019-02-21T03:01:45.433Z,102073.39
2019-02-21T03:02:49.800Z,102081.92
2019-02-21T03:03:54.089Z,102076.56
2019-02-21T03:04:58.395Z,102077.41
2019-02-21T03:06:02.766Z,102073.78
2019-02-21T03:07:07.231Z,102073.78
2019-02-21T03:08:11.404Z,102074.73
2019-02-21T03:09:15.747Z,102074.13
2019-02-21T03:10:19.929Z,102068.42
2019-02-21T03:11:24.253Z,102072.79
2019-02-21T03:12:28.604Z,102074.97
2019-02-21T03:13:32.973Z,102076.31
2019-02-21T03:14:37.219Z,102079.83
2019-02-21T03:15:41.472Z,102081.03
2019-02-21T03:16:45.739Z,102093.07
2019-02-21T03:17:50.115Z,102082.86
2019-02-21T03:18:54.435Z,102083.21
2019-02-21T03:19:58.722Z,102083.14
2019-02-21T03:21:03.031Z,102077.41
2019-02-21T03:22:07.339Z,102074.13
2019-02-21T03:23:11.680Z,102079.83
2019-02-21T03:24:16.048Z,102078.49
2019-02-21T03:25:20.391Z,102067.79
2019-02-21T03:26:24.679Z,102070.81
2019-02-21T03:27:28.977Z,102065.47
2019-02-21T03:28:33.351Z,102073.49
2019-02-21T03:29:37.670Z,102067.16
2019-02-21T03:30:42.019Z,102079.20
2019-02-21T03:31:54.170Z,102075.18
2019-02-21T03:32:50.721Z,102079.55
2019-02-21T03:33:55.088Z,102076.17
2019-02-21T03:34:59.445Z,102072.65
2019-02-21T03:36:03.781Z,102081.88
2019-02-21T03:37:08.170Z,102078.84
2019-02-21T03:38:12.461Z,102083.70
2019-02-21T03:39:16.832Z,102087.23
2019-02-21T03:40:21.170Z,102091.03
2019-02-21T03:41:25.505Z,102090.19
2019-02-21T03:42:29.754Z,102095.89
2019-02-21T03:43:34.093Z,102088.00
2019-02-21T03:44:38.546Z,102094.20
2019-02-21T03:45:42.818Z,102098.22
2019-02-21T03:46:47.053Z,102093.69
2019-02-21T03:47:51.320Z,102099.78
2019-02-21T03:48:55.551Z,102102.42
2019-02-21T03:49:59.998Z,102100.03
2019-02-21T03:51:04.424Z,102097.21
2019-02-21T03:52:08.768Z,102093.20
2019-02-21T03:53:13.183Z,102089.92
2019-02-21T03:54:17.513Z,102084.96
2019-02-21T03:55:21.922Z,102085.52
2019-02-21T03:56:26.247Z,102081.16
2019-02-21T03:57:30.632Z,102075.81
2019-02-21T03:58:34.979Z,102071.66
2019-02-21T03:59:39.332Z,102070.81
2019-02-21T04:00:43.593Z,102069.47
2019-02-21T04:01:47.864Z,102069.97
2019-02-21T04:02:52.070Z,102066.84
2019-02-21T04:03:56.385Z,102067.68
2019-02-21T04:05:00.697Z,102073.87
2019-02-21T04:06:04.975Z,102063.81
2019-02-21T04:07:09.217Z,102066.48
2019-02-21T04:08:13.531Z,102068.95
2019-02-21T04:09:17.728Z,102068.31
2019-02-21T04:10:21.930Z,102063.81
2019-02-21T04:11:26.271Z,102070.99
2019-02-21T04:12:30.644Z,102064.16
2019-02-21T04:13:34.862Z,102067.47
2019-02-21T04:14:39.235Z,102071.48
2019-02-21T04:15:43.458Z,102063.59
2019-02-21T04:16:47.981Z,102065.08
2019-02-21T04:17:52.198Z,102071.59
2019-02-21T04:18:56.498Z,102070.15
2019-02-21T04:20:00.753Z,102070.95
2019-02-21T04:21:05.212Z,102062.69
2019-02-21T04:22:09.555Z,102069.27
2019-02-21T04:23:13.803Z,102073.98
2019-02-21T04:24:18.138Z,102075.95
2019-02-21T04:25:22.431Z,102075.45
2019-02-21T04:26:26.750Z,102080.95
2019-02-21T04:27:31.133Z,102085.80
2019-02-21T04:28:35.471Z,102087.27
2019-02-21T04:29:39.730Z,102089.95
2019-02-21T04:30:44.097Z,102088.61
2019-02-21T04:31:48.396Z,102088.97
2019-02-21T04:32:52.735Z,102087.98
2019-02-21T04:33:57.133Z,102087.91
2019-02-21T04:35:01.350Z,102084.00
2019-02-21T04:36:05.729Z,102090.09
2019-02-21T04:37:10.047Z,102087.91
2019-02-21T04:38:14.485Z,102090.19
2019-02-21T04:39:18.756Z,102092.27
2019-02-21T04:40:22.974Z,102084.00
2019-02-21T04:41:27.294Z,102084.49
2019-02-21T04:42:31.477Z,102085.59
2019-02-21T04:43:35.921Z,102093.84
2019-02-21T04:44:40.331Z,102095.44
2019-02-21T04:45:44.626Z,102096.28
2019-02-21T04:46:49.019Z,102100.43
2019-02-21T04:47:53.346Z,102099.61
2019-02-21T04:48:57.697Z,102098.14
2019-02-21T04:50:01.988Z,102105.88
2019-02-21T04:51:06.235Z,102099.20
2019-02-21T04:52:10.404Z,102107.11
2019-02-21T04:53:14.750Z,102100.89
2019-02-21T04:54:19.205Z,102103.95
2019-02-21T04:55:23.418Z,102105.99
2019-02-21T04:56:27.809Z,102096.98
2019-02-21T04:57:32.020Z,102100.50
2019-02-21T04:58:36.394Z,102103.04
2019-02-21T04:59:40.779Z,102102.06
2019-02-21T05:00:45.112Z,102103.89
2019-02-21T05:01:49.438Z,102101.84
2019-02-21T05:02:53.640Z,102106.12
2019-02-21T05:03:57.833Z,102103.67
2019-02-21T05:05:02.191Z,102098.33
2019-02-21T05:06:06.449Z,102090.93
2019-02-21T05:07:10.794Z,102088.97
2019-02-21T05:08:14.987Z,102088.34
2019-02-21T05:09:19.293Z,102087.98
2019-02-21T05:10:23.473Z,102088.02
2019-02-21T05:11:27.812Z,102089.24
2019-02-21T05:12:38.199Z,102093.14
2019-02-21T05:13:42.515Z,102095.68
2019-02-21T05:14:46.775Z,102096.52
2019-02-21T05:15:51.115Z,102097.27
2019-02-21T05:16:55.476Z,102097.27
2019-02-21T05:17:59.716Z,102101.27
2019-02-21T05:19:03.906Z,102098.46
2019-02-21T05:20:08.257Z,102103.32
2019-02-21T05:21:12.652Z,102095.16
2019-02-21T05:22:17.032Z,102102.20
2019-02-21T05:23:21.411Z,102099.88
2019-02-21T05:24:25.765Z,102097.69
2019-02-21T05:25:30.061Z,102096.22
2019-02-21T05:26:39.181Z,102090.87
2019-02-21T05:27:47.465Z,102093.44
2019-02-21T05:28:51.862Z,102099.66
2019-02-21T05:29:56.043Z,102100.86
2019-02-21T05:31:05.169Z,102105.72
2019-02-21T05:32:17.394Z,102107.33
2019-02-21T05:33:26.808Z,102106.38
2019-02-21T05:34:36.048Z,102105.80
2019-02-21T05:35:45.104Z,102102.50
2019-02-21T05:36:54.403Z,102109.67
2019-02-21T05:38:03.790Z,102110.69
2019-02-21T05:39:17.101Z,102113.01
2019-02-21T05:40:28.449Z,102109.70
2019-02-21T05:41:41.599Z,102109.11
2019-02-21T05:42:50.919Z,102109.45
2019-02-21T05:44:33.755Z,102108.48
2019-02-21T05:46:42.664Z,102104.00
2019-02-21T05:47:51.056Z,102103.41
2019-02-21T05:49:31.719Z,102106.78
2019-02-21T05:50:40.221Z,102104.33
2019-02-21T05:51:51.696Z,102106.16
2019-02-21T05:54:01.747Z,102114.67
2019-02-21T05:55:17.954Z,102119.45
2019-02-21T05:56:27.212Z,102117.48
2019-02-21T05:57:43.330Z,102112.02
2019-02-21T05:59:06.963Z,102112.77
2019-02-21T06:00:18.250Z,102117.48
2019-02-21T06:01:28.613Z,102114.70
2019-02-21T06:02:55.159Z,102107.66
2019-02-21T06:04:05.509Z,102108.50
2019-02-21T06:06:12.693Z,102117.29
2019-02-21T06:07:21.027Z,102110.95
2019-02-21T06:08:47.372Z,102110.95
2019-02-21T06:09:57.621Z,102115.19
2019-02-21T06:11:18.451Z,102119.36
2019-02-21T06:12:33.459Z,102121.67
2019-02-21T06:13:40.494Z,102127.67
2019-02-21T06:14:48.733Z,102124.27
2019-02-21T06:15:58.318Z,102124.06
2019-02-21T06:17:13.611Z,102121.84
2019-02-21T06:18:23.858Z,102120.75
2019-02-21T06:19:33.356Z,102123.06
2019-02-21T06:21:00.107Z,102126.94
2019-02-21T06:22:11.456Z,102127.08
2019-02-21T06:23:21.730Z,102129.34
2019-02-21T06:24:31.139Z,102122.52
2019-02-21T06:26:39.576Z,102123.62
2019-02-21T06:27:46.519Z,102111.23
2019-02-21T06:28:57.109Z,102104.77
2019-02-21T06:30:08.378Z,102093.58
2019-02-21T06:31:15.749Z,102094.92
2019-02-21T06:32:20.064Z,102097.23
2019-02-21T06:33:24.397Z,102093.86
2019-02-21T06:34:28.740Z,102098.73
2019-02-21T06:35:33.268Z,102097.13
2019-02-21T06:36:37.595Z,102090.94
2019-02-21T06:37:41.901Z,102095.44
2019-02-21T06:38:46.313Z,102094.21
2019-02-21T06:39:50.611Z,102099.56
2019-02-21T06:40:54.882Z,102103.92
2019-02-21T06:42:00.266Z,102106.84
2019-02-21T06:43:03.502Z,102109.90
2019-02-21T06:44:07.703Z,102113.91
2019-02-21T06:45:11.903Z,102117.42
2019-02-21T06:46:16.148Z,102120.67
2019-02-21T06:47:20.699Z,102113.36
2019-02-21T06:48:24.926Z,102119.55
2019-02-21T06:49:32.589Z,102123.20
2019-02-21T06:50:33.842Z,102127.84
2019-02-21T06:51:38.181Z,102131.09
2019-02-21T06:52:42.525Z,102129.52
2019-02-21T06:53:46.897Z,102126.20
2019-02-21T06:54:51.195Z,102130.44
2019-02-21T06:55:55.511Z,102125.69
2019-02-21T06:56:59.805Z,102125.94
2019-02-21T06:58:04.183Z,102127.55
2019-02-21T06:59:08.530Z,102126.92
2019-02-21T07:00:12.830Z,102132.02
2019-02-21T07:01:26.662Z,102128.23
2019-02-21T07:02:21.574Z,102123.45
2019-02-21T07:03:25.953Z,102132.42
2019-02-21T07:04:29.983Z,102139.61
2019-02-21T07:05:33.982Z,102132.78
2019-02-21T07:06:39.269Z,102137.01
2019-02-21T07:07:42.041Z,102133.00
2019-02-21T07:08:46.134Z,102117.20
2019-02-21T07:09:50.155Z,102121.42
2019-02-21T07:11:05.479Z,102123.81
2019-02-21T07:11:58.892Z,102132.94
2019-02-21T07:13:03.202Z,102136.59
2019-02-21T07:14:07.547Z,102138.88
2019-02-21T07:15:11.898Z,102148.49
2019-02-21T07:16:16.114Z,102144.69
2019-02-21T07:17:20.334Z,102145.89
2019-02-21T07:18:24.625Z,102139.84
2019-02-21T07:19:29.015Z,102133.72
2019-02-21T07:20:33.334Z,102139.13
2019-02-21T07:21:37.672Z,102137.02
2019-02-21T07:22:41.909Z,102139.80
2019-02-21T07:23:46.287Z,102147.41
2019-02-21T07:24:58.098Z,102140.65
2019-02-21T07:26:05.794Z,102149.38
2019-02-21T07:27:10.094Z,102144.88
2019-02-21T07:28:15.982Z,102149.59
2019-02-21T07:29:19.094Z,102153.96
2019-02-21T07:30:23.529Z,102151.64
2019-02-21T07:31:29.307Z,102143.72
2019-02-21T07:32:32.270Z,102141.39
2019-02-21T07:33:36.622Z,102138.64
2019-02-21T07:34:40.941Z,102142.20
2019-02-21T07:35:45.341Z,102142.77
2019-02-21T07:36:50.212Z,102147.13
2019-02-21T07:37:54.096Z,102141.18
2019-02-21T07:39:13.859Z,102137.95
2019-02-21T07:40:02.817Z,102137.20
2019-02-21T07:41:07.256Z,102149.31
2019-02-21T07:42:11.508Z,102154.42
2019-02-21T07:43:15.843Z,102160.83
2019-02-21T07:44:20.126Z,102162.98
2019-02-21T07:45:24.403Z,102164.88
2019-02-21T07:46:28.644Z,102167.84
2019-02-21T07:47:32.968Z,102168.15
2019-02-21T07:48:37.141Z,102168.40
2019-02-21T07:49:41.542Z,102165.82
2019-02-21T07:50:46.038Z,102171.98
2019-02-21T07:51:50.334Z,102170.64
2019-02-21T07:53:02.094Z,102182.62
2019-02-21T07:53:59.111Z,102178.81
2019-02-21T07:55:03.393Z,102180.76
2019-02-21T07:56:07.806Z,102187.31
2019-02-21T07:57:12.025Z,102177.41
2019-02-21T07:58:16.405Z,102177.52
2019-02-21T07:59:20.675Z,102179.21
2019-02-21T08:00:25.062Z,102181.64
2019-02-21T08:01:29.415Z,102188.93
2019-02-21T08:02:33.753Z,102189.56
2019-02-21T08:03:44.175Z,102191.33
2019-02-21T08:04:42.376Z,102182.59
2019-02-21T08:05:46.703Z,102186.64
2019-02-21T08:06:51.146Z,102188.56
2019-02-21T08:07:55.502Z,102191.95
2019-02-21T08:08:59.869Z,102187.93
2019-02-21T08:10:04.229Z,102189.63
2019-02-21T08:11:08.589Z,102190.67
2019-02-21T08:12:13.008Z,102181.77
2019-02-21T08:13:17.359Z,102189.91
2019-02-21T08:14:21.502Z,102184.55
2019-02-21T08:15:27.664Z,102186.23
2019-02-21T08:16:30.221Z,102192.02
2019-02-21T08:17:34.635Z,102194.16
2019-02-21T08:18:39.024Z,102189.36
2019-02-21T08:19:43.348Z,102194.95
2019-02-21T08:20:47.735Z,102193.12
2019-02-21T08:21:52.049Z,102198.58
2019-02-21T08:22:56.535Z,102198.66
2019-02-21T08:24:00.766Z,102198.61
2019-02-21T08:25:05.180Z,102200.55
2019-02-21T08:26:09.596Z,102198.47
2019-02-21T08:27:13.877Z,102198.19
2019-02-21T08:28:18.267Z,102198.89
2019-02-21T08:29:22.660Z,102201.50
2019-02-21T08:30:29.031Z,102203.41
2019-02-21T08:31:31.365Z,102208.51
2019-02-21T08:32:39.729Z,102207.66
2019-02-21T08:34:04.433Z,102210.91
2019-02-21T08:35:08.013Z,102210.77
2019-02-21T08:36:12.504Z,102210.06
2019-02-21T08:37:16.853Z,102210.06
2019-02-21T08:38:21.069Z,102212.55
2019-02-21T08:39:25.531Z,102219.70
2019-02-21T08:40:29.835Z,102217.98
2019-02-21T08:41:34.198Z,102218.47
2019-02-21T08:42:38.593Z,102217.03
2019-02-21T08:43:42.811Z,102209.05
2019-02-21T08:44:47.212Z,102215.06
2019-02-21T08:45:51.427Z,102210.51
2019-02-21T08:46:55.796Z,102205.72
2019-02-21T08:48:00.168Z,102206.91
2019-02-21T08:49:04.601Z,102217.09
2019-02-21T08:50:08.941Z,102224.14
2019-02-21T08:51:13.152Z,102226.56
2019-02-21T08:52:17.442Z,102223.29
2019-02-21T08:53:21.765Z,102222.30
2019-02-21T08:54:25.997Z,102216.56
2019-02-21T08:55:30.283Z,102214.08
2019-02-21T08:56:34.575Z,102217.28
2019-02-21T08:57:38.905Z,102212.73
2019-02-21T08:58:43.196Z,102212.20
2019-02-21T08:59:47.707Z,102218.27
2019-02-21T09:00:54.343Z,102220.88
2019-02-21T09:01:56.326Z,102227.35
2019-02-21T09:03:00.555Z,102248.00
2019-02-21T09:04:10.530Z,102244.76
2019-02-21T09:05:09.615Z,102234.61
2019-02-21T09:06:13.933Z,102242.08
2019-02-21T09:07:18.286Z,102241.05
2019-02-21T09:08:32.737Z,102240.02
2019-02-21T09:09:27.040Z,102246.67
2019-02-21T09:10:31.470Z,102247.88
2019-02-21T09:11:35.696Z,102246.74
2019-02-21T09:12:40.150Z,102248.03
2019-02-21T09:13:44.453Z,102263.92
2019-02-21T09:14:48.786Z,102250.59
2019-02-21T09:15:55.752Z,102256.75
2019-02-21T09:16:57.554Z,102252.28
2019-02-21T09:18:01.930Z,102255.73
2019-02-21T09:19:06.219Z,102250.78
2019-02-21T09:20:10.780Z,102251.02
2019-02-21T09:21:15.174Z,102259.33
2019-02-21T09:22:19.423Z,102254.95
2019-02-21T09:23:23.852Z,102255.31
2019-02-21T09:24:38.482Z,102255.95
2019-02-21T09:25:32.438Z,102260.41
2019-02-21T09:26:36.777Z,102258.07
2019-02-21T09:27:41.067Z,102260.11
2019-02-21T09:28:45.381Z,102260.32
2019-02-21T09:29:49.563Z,102259.22
2019-02-21T09:30:53.951Z,102262.01
2019-02-21T09:31:58.297Z,102265.88
2019-02-21T09:33:02.723Z,102265.85
2019-02-21T09:34:07.118Z,102264.94
2019-02-21T09:35:11.414Z,102260.64
2019-02-21T09:36:15.761Z,102261.69
2019-02-21T09:37:20.204Z,102261.48
2019-02-21T09:38:24.539Z,102267.27
2019-02-21T09:39:28.765Z,102257.31
2019-02-21T09:40:33.092Z,102247.42
2019-02-21T09:41:37.390Z,102259.45
2019-02-21T09:42:41.926Z,102262.94
2019-02-21T09:43:46.326Z,102254.35
2019-02-21T09:44:50.620Z,102255.53
2019-02-21T09:45:54.921Z,102257.43
2019-02-21T09:46:59.220Z,102256.11
2019-02-21T09:48:03.646Z,102258.08
2019-02-21T09:49:07.837Z,102251.88
2019-02-21T09:50:12.245Z,102253.72
2019-02-21T09:51:18.350Z,102252.38
2019-02-21T09:52:20.845Z,102255.02
2019-02-21T09:53:25.234Z,102255.07
2019-02-21T09:54:29.612Z,102253.17
2019-02-21T09:55:34.045Z,102257.50
2019-02-21T09:56:38.303Z,102260.37
2019-02-21T09:57:42.541Z,102259.94
2019-02-21T09:58:46.982Z,102265.66
2019-02-21T09:59:51.315Z,102261.08
2019-02-21T10:00:55.537Z,102270.06
2019-02-21T10:01:59.827Z,102267.98
2019-02-21T10:03:04.165Z,102274.20
2019-02-21T10:04:08.445Z,102274.78
2019-02-21T10:05:12.765Z,102278.22
2019-02-21T10:06:17.073Z,102277.86
2019-02-21T10:07:21.371Z,102283.02
2019-02-21T10:08:25.700Z,102289.73
2019-02-21T10:09:29.983Z,102291.57
2019-02-21T10:10:34.331Z,102293.20
2019-02-21T10:11:38.622Z,102297.48
2019-02-21T10:12:43.044Z,102289.94
2019-02-21T10:13:47.224Z,102295.95
2019-02-21T10:14:51.514Z,102288.95
2019-02-21T10:15:55.836Z,102293.20
2019-02-21T10:17:00.166Z,102297.29
2019-02-21T10:18:04.498Z,102294.11
2019-02-21T10:19:08.794Z,102296.19
2019-02-21T10:20:15.253Z,102293.20
2019-02-21T10:21:19.458Z,102292.56
2019-02-21T10:22:26.110Z,102298.42
2019-02-21T10:23:28.287Z,102291.95
2019-02-21T10:24:32.686Z,102291.70
2019-02-21T10:25:37.134Z,102296.52
2019-02-21T10:26:41.482Z,102289.87
2019-02-21T10:27:45.867Z,102291.49
2019-02-21T10:28:50.225Z,102296.80
2019-02-21T10:29:54.550Z,102294.89
2019-02-21T10:30:59.005Z,102290.38
2019-02-21T10:32:03.453Z,102297.58
2019-02-21T10:33:07.779Z,102299.27
2019-02-21T10:34:12.137Z,102298.81
2019-02-21T10:35:16.482Z,102298.05
2019-02-21T10:36:20.813Z,102300.29
2019-02-21T10:37:25.186Z,102296.98
2019-02-21T10:38:29.525Z,102294.52
2019-02-21T10:39:33.930Z,102286.66
2019-02-21T10:40:38.229Z,102291.19
2019-02-21T10:41:42.590Z,102288.42
2019-02-21T10:42:46.993Z,102291.39
2019-02-21T10:43:51.358Z,102300.86
2019-02-21T10:44:55.603Z,102293.66
2019-02-21T10:45:59.925Z,102294.05
2019-02-21T10:47:04.276Z,102291.24
2019-02-21T10:48:08.501Z,102293.97
2019-02-21T10:49:12.894Z,102299.20
2019-02-21T10:50:18.773Z,102288.17
2019-02-21T10:51:23.202Z,102290.17
2019-02-21T10:52:27.567Z,102281.92
2019-02-21T10:53:31.868Z,102288.17
2019-02-21T10:54:36.190Z,102287.61
2019-02-21T10:55:40.697Z,102291.29
2019-02-21T10:56:45.152Z,102282.58
2019-02-21T10:57:49.433Z,102288.91
2019-02-21T10:58:53.939Z,102282.11
2019-02-21T10:59:58.571Z,102290.94
2019-02-21T11:01:03.039Z,102291.83
2019-02-21T11:02:07.540Z,102296.23
2019-02-21T11:03:11.812Z,102300.91
2019-02-21T11:04:16.090Z,102297.82
2019-02-21T11:05:20.265Z,102300.26
2019-02-21T11:06:24.574Z,102296.58
2019-02-21T11:07:28.634Z,102303.84
2019-02-21T11:08:33.046Z,102297.13
2019-02-21T11:09:37.460Z,102297.30
2019-02-21T11:10:41.955Z,102302.09
2019-02-21T11:11:46.431Z,102300.20
2019-02-21T11:12:50.878Z,102302.31
2019-02-21T11:13:55.282Z,102299.55
2019-02-21T11:14:59.580Z,102299.55
2019-02-21T11:16:04.120Z,102300.55
2019-02-21T11:17:08.352Z,102307.46
2019-02-21T11:18:12.770Z,102315.39
2019-02-21T11:19:17.053Z,102311.02
2019-02-21T11:20:21.395Z,102316.71
2019-02-21T11:21:25.624Z,102319.59
2019-02-21T11:22:29.946Z,102327.72
2019-02-21T11:23:34.580Z,102321.52
2019-02-21T11:24:38.978Z,102335.72
2019-02-21T11:25:43.286Z,102337.06
2019-02-21T11:26:47.580Z,102339.53
2019-02-21T11:27:52.014Z,102334.51
2019-02-21T11:28:56.429Z,102340.58
2019-02-21T11:30:00.837Z,102340.52
2019-02-21T11:31:05.156Z,102333.93
2019-02-21T11:32:09.524Z,102343.11
2019-02-21T11:33:13.766Z,102345.55
2019-02-21T11:34:18.091Z,102338.69
2019-02-21T11:35:22.523Z,102346.51
2019-02-21T11:36:26.869Z,102346.45
2019-02-21T11:37:42.413Z,102346.31
2019-02-21T11:38:35.579Z,102345.37
2019-02-21T11:39:39.909Z,102352.11
2019-02-21T11:40:44.198Z,102349.69
2019-02-21T11:41:48.585Z,102349.98
2019-02-21T11:42:52.913Z,102351.68
2019-02-21T11:43:57.183Z,102355.20
2019-02-21T11:45:01.580Z,102361.86
2019-02-21T11:46:06.073Z,102363.91
2019-02-21T11:47:10.435Z,102364.80
2019-02-21T11:48:14.792Z,102365.53
2019-02-21T11:49:19.117Z,102364.95
2019-02-21T11:50:23.513Z,102365.68
2019-02-21T11:51:27.906Z,102371.95
2019-02-21T11:52:32.227Z,102373.59
2019-02-21T11:53:38.110Z,102365.94
2019-02-21T11:54:41.007Z,102377.90
2019-02-21T11:55:45.358Z,102368.63
2019-02-21T11:56:49.652Z,102376.18
2019-02-21T11:57:54.041Z,102374.62
2019-02-21T11:58:58.113Z,102377.74
2019-02-21T12:00:02.587Z,102377.80
2019-02-21T12:01:08.343Z,102374.20
2019-02-21T12:02:12.734Z,102383.15
2019-02-21T12:03:17.064Z,102379.20
2019-02-21T12:04:21.474Z,102378.51
2019-02-21T12:05:31.555Z,102372.77
2019-02-21T12:06:30.137Z,102369.05
2019-02-21T12:07:34.445Z,102375.19
2019-02-21T12:08:38.763Z,102376.59
2019-02-21T12:09:43.082Z,102377.16
2019-02-21T12:10:47.146Z,102381.27
2019-02-21T12:11:51.227Z,102377.25
2019-02-21T12:12:55.241Z,102387.13
2019-02-21T12:13:59.260Z,102380.05
2019-02-21T12:15:03.406Z,102380.83
2019-02-21T12:16:07.460Z,102375.87
2019-02-21T12:17:11.573Z,102381.47
2019-02-21T12:18:15.669Z,102385.64
2019-02-21T12:19:19.751Z,102378.84
2019-02-21T12:20:23.766Z,102380.17
2019-02-21T12:21:27.902Z,102381.47
2019-02-21T12:22:31.915Z,102381.72
2019-02-21T12:23:35.960Z,102372.12
2019-02-21T12:24:39.984Z,102371.40
2019-02-21T12:25:44.041Z,102374.86